createdAt,value
2022-09-12T00:02:21.237Z,13.85
2022-09-12T00:04:56.233Z,13.86
2022-09-12T00:07:31.144Z,13.86
2022-09-12T00:10:06.632Z,13.86
2022-09-12T00:12:42.086Z,13.86
2022-09-12T00:15:17.916Z,13.86
2022-09-12T00:17:51.320Z,13.84
2022-09-12T00:20:24.523Z,13.80
2022-09-12T00:22:57.800Z,13.81
2022-09-12T00:25:31.829Z,13.81
2022-09-12T00:28:04.982Z,13.75
2022-09-12T00:30:41.882Z,13.75
2022-09-12T00:33:15.575Z,13.84
2022-09-12T00:35:50.935Z,13.91
2022-09-12T00:38:24.322Z,13.95
2022-09-12T00:40:57.451Z,13.96
2022-09-12T00:43:43.102Z,13.98
2022-09-12T00:46:45.370Z,13.93
2022-09-12T00:49:23.862Z,13.89
2022-09-12T00:52:12.793Z,13.95
2022-09-12T00:54:57.569Z,13.99
2022-09-12T00:57:40.077Z,13.95
2022-09-12T01:00:18.081Z,13.97
2022-09-12T01:03:04.578Z,14.00
2022-09-12T01:05:45.164Z,13.96
2022-09-12T01:08:19.443Z,13.99
2022-09-12T01:10:53.172Z,13.95
2022-09-12T01:13:26.892Z,13.97
2022-09-12T01:15:59.874Z,13.97
2022-09-12T01:18:45.898Z,13.79
2022-09-12T01:21:41.043Z,13.73
2022-09-12T01:24:23.463Z,13.78
2022-09-12T01:27:20.111Z,13.68
2022-09-12T01:30:06.211Z,13.52
2022-09-12T01:33:09.141Z,13.50
2022-09-12T01:35:58.711Z,13.41
2022-09-12T01:38:36.902Z,13.32
2022-09-12T01:41:50.962Z,13.21
2022-09-12T01:44:47.155Z,13.22
2022-09-12T01:47:42.241Z,13.16
2022-09-12T01:50:22.403Z,13.07
2022-09-12T01:53:21.733Z,13.15
2022-09-12T01:56:09.503Z,13.07
2022-09-12T01:58:50.612Z,13.12
2022-09-12T02:01:39.833Z,13.13
2022-09-12T02:04:31.069Z,13.13
2022-09-12T02:07:36.470Z,13.11
2022-09-12T02:10:19.164Z,13.13
2022-09-12T02:13:01.433Z,13.15
2022-09-12T02:15:43.073Z,13.18
2022-09-12T02:18:19.123Z,13.18
2022-09-12T02:20:54.215Z,13.22
2022-09-12T02:23:33.146Z,13.19
2022-09-12T02:26:12.993Z,13.13
2022-09-12T02:28:47.893Z,13.09
2022-09-12T02:31:34.025Z,13.09
2022-09-12T02:34:27.786Z,13.05
2022-09-12T02:37:36.124Z,13.03
2022-09-12T02:40:10.205Z,12.91
2022-09-12T02:42:43.143Z,12.92
2022-09-12T02:45:17.010Z,12.87
2022-09-12T02:48:13.611Z,12.91
2022-09-12T02:50:46.735Z,12.89
2022-09-12T02:53:20.770Z,12.89
2022-09-12T02:55:55.111Z,12.87
2022-09-12T02:58:32.397Z,12.82
2022-09-12T03:01:31.698Z,12.75
2022-09-12T03:04:17.797Z,12.81
2022-09-12T03:07:00.111Z,12.81
2022-09-12T03:09:51.710Z,12.83
2022-09-12T03:12:49.312Z,12.78
2022-09-12T03:15:44.091Z,12.81
2022-09-12T03:18:34.105Z,12.79
2022-09-12T03:21:12.494Z,12.78
2022-09-12T03:23:53.568Z,12.83
2022-09-12T03:26:41.476Z,12.89
2022-09-12T03:29:16.993Z,13.00
2022-09-12T03:32:00.432Z,13.05
2022-09-12T03:34:33.449Z,13.08
2022-09-12T03:37:07.021Z,13.11
2022-09-12T03:39:41.183Z,13.08
2022-09-12T03:42:15.355Z,13.14
2022-09-12T03:44:49.024Z,13.12
2022-09-12T03:47:23.139Z,13.09
2022-09-12T03:49:56.278Z,13.08
2022-09-12T03:52:30.024Z,12.99
2022-09-12T03:55:04.412Z,12.95
2022-09-12T03:57:38.152Z,12.91
2022-09-12T04:00:15.325Z,12.92
2022-09-12T04:02:57.585Z,12.92
2022-09-12T04:05:30.755Z,12.95
2022-09-12T04:08:03.930Z,12.97
2022-09-12T04:10:37.034Z,13.01
2022-09-12T04:13:10.178Z,13.07
2022-09-12T04:15:44.842Z,13.11
2022-09-12T04:18:19.167Z,13.15
2022-09-12T04:20:52.973Z,13.12
2022-09-12T04:23:26.350Z,13.17
2022-09-12T04:26:03.890Z,13.19
2022-09-12T04:28:38.236Z,13.19
2022-09-12T04:31:15.963Z,13.31
2022-09-12T04:33:49.060Z,13.33
2022-09-12T04:36:27.636Z,13.29
2022-09-12T04:39:01.036Z,13.29
2022-09-12T04:41:37.012Z,13.36
2022-09-12T04:44:15.171Z,13.37
2022-09-12T04:46:50.294Z,13.44
2022-09-12T04:49:23.928Z,13.53
2022-09-12T04:51:57.713Z,13.61
2022-09-12T04:54:31.641Z,13.75
2022-09-12T04:57:05.296Z,13.90
2022-09-12T04:59:40.541Z,14.00
2022-09-12T05:02:14.174Z,14.05
2022-09-12T05:04:48.690Z,14.17
2022-09-12T05:07:22.844Z,14.23
2022-09-12T05:09:56.712Z,14.25
2022-09-12T05:12:31.717Z,14.31
2022-09-12T05:15:05.461Z,14.40
2022-09-12T05:17:39.324Z,14.44
2022-09-12T05:20:13.540Z,14.62
2022-09-12T05:22:50.631Z,14.70
2022-09-12T05:25:24.400Z,14.75
2022-09-12T05:27:58.469Z,14.84
2022-09-12T05:30:32.120Z,14.93
2022-09-12T05:33:05.442Z,14.97
2022-09-12T05:35:38.990Z,14.95
2022-09-12T05:38:12.282Z,14.90
2022-09-12T05:40:45.752Z,14.87
2022-09-12T05:43:21.782Z,14.89
2022-09-12T05:45:55.684Z,14.95
2022-09-12T05:48:29.375Z,15.08
2022-09-12T05:51:09.971Z,15.21
2022-09-12T05:53:44.218Z,15.30
2022-09-12T05:56:19.695Z,15.26
2022-09-12T05:58:58.922Z,15.28
2022-09-12T06:01:35.222Z,15.25
2022-09-12T06:04:10.389Z,15.32
2022-09-12T06:06:55.785Z,15.42
2022-09-12T06:09:29.972Z,15.56
2022-09-12T06:12:04.751Z,15.64
2022-09-12T06:14:39.584Z,15.67
2022-09-12T06:17:16.366Z,15.85
2022-09-12T06:19:53.017Z,16.13
2022-09-12T06:22:27.240Z,16.19
2022-09-12T06:25:00.895Z,16.24
2022-09-12T06:27:34.779Z,16.21
2022-09-12T06:30:08.509Z,16.18
2022-09-12T06:32:41.976Z,16.16
2022-09-12T06:35:15.660Z,16.21
2022-09-12T06:37:49.358Z,16.33
2022-09-12T06:40:23.345Z,16.76
2022-09-12T06:42:57.419Z,17.29
2022-09-12T06:45:38.725Z,17.57
2022-09-12T06:48:15.008Z,17.81
2022-09-12T06:50:59.620Z,18.01
2022-09-12T06:53:34.259Z,18.06
2022-09-12T06:56:12.924Z,18.00
2022-09-12T06:58:48.477Z,17.89
2022-09-12T07:01:28.441Z,17.79
2022-09-12T07:04:03.935Z,17.77
2022-09-12T07:06:43.231Z,18.01
2022-09-12T07:09:17.628Z,18.23
2022-09-12T07:11:51.772Z,18.49
2022-09-12T07:14:27.102Z,18.87
2022-09-12T07:17:00.558Z,19.18
2022-09-12T07:19:35.723Z,19.39
2022-09-12T07:22:09.250Z,19.50
2022-09-12T07:24:43.122Z,19.47
2022-09-12T07:27:19.030Z,19.50
2022-09-12T07:29:52.361Z,19.70
2022-09-12T07:32:25.213Z,20.04
2022-09-12T07:34:58.375Z,20.26
2022-09-12T07:37:33.565Z,20.26
2022-09-12T07:40:07.215Z,20.10
2022-09-12T07:42:40.628Z,19.87
2022-09-12T07:45:14.011Z,19.83
2022-09-12T07:47:47.951Z,19.71
2022-09-12T07:50:21.916Z,19.66
2022-09-12T07:52:56.814Z,19.71
2022-09-12T07:55:30.589Z,19.87
2022-09-12T07:58:04.722Z,19.91
2022-09-12T08:00:39.044Z,19.82
2022-09-12T08:03:13.627Z,19.61
2022-09-12T08:05:47.585Z,19.43
2022-09-12T08:08:21.284Z,19.24
2022-09-12T08:11:04.748Z,19.03
2022-09-12T08:13:39.492Z,18.92
2022-09-12T08:16:18.807Z,18.71
2022-09-12T08:18:52.410Z,18.55
2022-09-12T08:21:31.147Z,18.59
2022-09-12T08:24:06.653Z,18.70
2022-09-12T08:26:42.461Z,18.78
2022-09-12T08:29:17.244Z,18.87
2022-09-12T08:31:57.021Z,19.11
2022-09-12T08:34:31.213Z,19.43
2022-09-12T08:37:04.907Z,19.53
2022-09-12T08:39:38.641Z,19.39
2022-09-12T08:42:24.509Z,19.30
2022-09-12T08:45:06.933Z,19.28
2022-09-12T08:50:36.712Z,18.93
2022-09-12T08:53:27.782Z,18.83
2022-09-12T08:56:07.742Z,18.75
2022-09-12T08:58:47.120Z,18.72
2022-09-12T09:01:29.441Z,18.74
2022-09-12T09:04:42.582Z,18.68
2022-09-12T09:07:53.897Z,18.72
2022-09-12T09:10:44.570Z,18.92
2022-09-12T09:13:53.458Z,19.06
2022-09-12T09:16:40.294Z,19.26
2022-09-12T09:19:24.164Z,19.49
2022-09-12T09:22:15.296Z,19.72
2022-09-12T09:25:02.023Z,19.98
2022-09-12T09:27:51.651Z,20.25
2022-09-12T09:30:24.913Z,20.53
2022-09-12T09:33:02.091Z,20.64
2022-09-12T09:36:02.606Z,20.63
2022-09-12T09:38:51.998Z,20.69
2022-09-12T09:41:34.684Z,20.81
2022-09-12T09:46:50.772Z,21.34
2022-09-12T09:49:25.168Z,21.57
2022-09-12T09:52:01.749Z,21.72
2022-09-12T09:54:58.212Z,21.87
2022-09-12T09:57:45.417Z,21.89
2022-09-12T10:00:38.107Z,21.86
2022-09-12T10:03:16.374Z,21.89
2022-09-12T10:05:54.743Z,21.84
2022-09-12T10:08:33.950Z,21.89
2022-09-12T10:11:20.441Z,21.88
2022-09-12T10:14:03.770Z,21.71
2022-09-12T10:16:57.175Z,21.35
2022-09-12T10:19:52.687Z,20.99
2022-09-12T10:22:42.061Z,20.80
2022-09-12T10:25:21.973Z,20.74
2022-09-12T10:28:03.568Z,20.70
2022-09-12T10:30:36.415Z,20.56
2022-09-12T10:33:14.684Z,20.51
2022-09-12T10:35:51.677Z,20.29
2022-09-12T10:38:35.567Z,20.17
2022-09-12T10:41:14.239Z,20.10
2022-09-12T10:43:49.383Z,20.01
2022-09-12T10:46:23.656Z,19.95
2022-09-12T10:49:16.754Z,19.86
2022-09-12T10:51:50.926Z,19.74
2022-09-12T10:54:26.931Z,19.68
2022-09-12T10:57:32.695Z,19.68
2022-09-12T11:00:35.964Z,19.72
2022-09-12T11:03:37.968Z,19.75
2022-09-12T11:06:14.805Z,19.67
2022-09-12T11:09:04.170Z,19.77
2022-09-12T11:11:57.927Z,19.73
2022-09-12T11:14:53.852Z,19.58
2022-09-12T11:17:49.289Z,19.47
2022-09-12T11:20:37.470Z,19.45
2022-09-12T11:23:48.419Z,19.38
2022-09-12T11:26:42.330Z,19.45
2022-09-12T11:29:24.173Z,19.51
2022-09-12T11:32:35.993Z,19.60
2022-09-12T11:35:21.958Z,19.76
2022-09-12T11:38:29.661Z,19.84
2022-09-12T11:41:27.351Z,19.99
2022-09-12T11:44:20.331Z,20.00
2022-09-12T11:46:53.791Z,20.03
2022-09-12T11:49:38.282Z,20.06
2022-09-12T11:52:25.946Z,19.98
2022-09-12T11:55:11.755Z,19.97
2022-09-12T11:57:58.914Z,20.06
2022-09-12T12:00:49.212Z,20.11
2022-09-12T12:03:41.049Z,20.28
2022-09-12T12:06:21.123Z,20.38
2022-09-12T12:08:55.219Z,20.38
2022-09-12T12:11:42.964Z,20.26
2022-09-12T12:14:23.033Z,20.19
2022-09-12T12:16:56.493Z,20.15
2022-09-12T12:19:38.755Z,20.17
2022-09-12T12:22:26.627Z,20.19
2022-09-12T12:25:29.437Z,20.27
2022-09-12T12:28:06.370Z,20.45
2022-09-12T12:30:39.533Z,20.57
2022-09-12T12:33:14.825Z,20.59
2022-09-12T12:36:07.907Z,20.59
2022-09-12T12:38:42.478Z,20.60
2022-09-12T12:41:20.753Z,20.61
2022-09-12T12:43:58.247Z,20.62
2022-09-12T12:46:33.333Z,20.47
2022-09-12T12:49:35.834Z,20.48
2022-09-12T12:52:18.682Z,20.62
2022-09-12T12:54:59.002Z,20.75
2022-09-12T12:57:39.356Z,20.67
2022-09-12T13:00:35.619Z,20.69
2022-09-12T13:03:08.752Z,20.58
2022-09-12T13:05:59.766Z,20.45
2022-09-12T13:08:40.077Z,20.41
2022-09-12T13:11:31.485Z,20.38
2022-09-12T13:14:07.780Z,20.37
2022-09-12T13:16:42.886Z,20.33
2022-09-12T13:19:36.074Z,20.36
2022-09-12T13:22:11.343Z,20.34
2022-09-12T13:24:53.164Z,20.31
2022-09-12T13:27:27.877Z,20.22
2022-09-12T13:30:16.121Z,20.08
2022-09-12T13:32:49.249Z,20.03
2022-09-12T13:35:50.816Z,20.02
2022-09-12T13:38:50.893Z,20.02
2022-09-12T13:42:00.857Z,19.95
2022-09-12T13:44:43.609Z,19.88
2022-09-12T13:47:34.006Z,19.79
2022-09-12T13:50:09.024Z,19.75
2022-09-12T13:52:42.555Z,19.77
2022-09-12T13:55:34.843Z,19.68
2022-09-12T13:58:29.190Z,19.62
2022-09-12T14:01:14.918Z,19.60
2022-09-12T14:04:16.213Z,19.61
2022-09-12T14:06:53.703Z,19.71
2022-09-12T14:09:33.525Z,19.73
2022-09-12T14:12:21.564Z,19.74
2022-09-12T14:14:55.148Z,19.82
2022-09-12T14:17:36.596Z,19.88
2022-09-12T14:20:19.270Z,19.64
2022-09-12T14:22:54.716Z,19.58
2022-09-12T14:25:31.079Z,19.47
2022-09-12T14:28:05.290Z,19.36
2022-09-12T14:30:39.969Z,19.12
2022-09-12T14:33:20.066Z,18.94
2022-09-12T14:36:09.134Z,18.70
2022-09-12T14:38:47.364Z,18.54
2022-09-12T14:41:40.281Z,18.51
2022-09-12T14:44:21.869Z,18.39
2022-09-12T14:46:55.633Z,18.34
2022-09-12T14:49:41.467Z,18.28
2022-09-12T14:52:34.507Z,18.17
2022-09-12T14:55:46.804Z,18.06
2022-09-12T14:58:28.683Z,17.99
2022-09-12T15:01:04.346Z,17.92
2022-09-12T15:03:39.876Z,17.88
2022-09-12T15:06:38.223Z,17.88
2022-09-12T15:09:15.118Z,17.82
2022-09-12T15:11:48.125Z,17.71
2022-09-12T15:14:21.458Z,17.58
2022-09-12T15:16:54.778Z,17.58
2022-09-12T15:19:27.822Z,17.59
2022-09-12T15:22:01.220Z,17.53
2022-09-12T15:24:33.946Z,17.42
2022-09-12T15:27:17.438Z,17.27
2022-09-12T15:29:51.254Z,17.18
2022-09-12T15:32:28.439Z,17.11
2022-09-12T15:35:02.015Z,16.84
2022-09-12T15:37:35.274Z,16.58
2022-09-12T15:40:09.239Z,16.29
2022-09-12T15:42:42.914Z,15.99
2022-09-12T15:45:22.107Z,15.85
2022-09-12T15:47:55.149Z,15.80
2022-09-12T15:50:28.655Z,15.84
2022-09-12T15:53:02.221Z,15.87
2022-09-12T15:55:35.680Z,15.92
2022-09-12T15:58:09.501Z,15.95
2022-09-12T16:00:42.281Z,15.92
2022-09-12T16:03:33.336Z,15.93
2022-09-12T16:06:07.961Z,15.91
2022-09-12T16:08:40.727Z,15.91
2022-09-12T16:11:26.593Z,16.03
2022-09-12T16:13:59.459Z,16.06
2022-09-12T16:16:32.625Z,16.07
2022-09-12T16:19:06.826Z,16.11
2022-09-12T16:21:42.492Z,16.10
2022-09-12T16:24:15.378Z,16.16
2022-09-12T16:26:48.165Z,16.11
2022-09-12T16:29:21.361Z,16.08
2022-09-12T16:31:56.201Z,16.05
2022-09-12T16:34:29.154Z,15.89
2022-09-12T16:37:03.310Z,15.85
2022-09-12T16:39:36.143Z,15.67
2022-09-12T16:42:08.940Z,15.55
2022-09-12T16:44:42.107Z,15.52
2022-09-12T16:47:15.151Z,15.53
2022-09-12T16:49:48.191Z,15.52
2022-09-12T16:52:21.266Z,15.46
2022-09-12T16:54:54.686Z,15.54
2022-09-12T16:57:30.730Z,15.54
2022-09-12T17:00:04.413Z,15.57
2022-09-12T17:02:37.832Z,15.61
2022-09-12T17:05:11.312Z,15.67
2022-09-12T17:07:44.986Z,15.72
2022-09-12T17:10:19.606Z,15.73
2022-09-12T17:12:52.964Z,15.67
2022-09-12T17:15:26.653Z,15.67
2022-09-12T17:18:00.114Z,15.75
2022-09-12T17:20:33.671Z,15.76
2022-09-12T17:23:09.747Z,15.74
2022-09-12T17:25:43.176Z,15.68
2022-09-12T17:28:15.812Z,15.73
2022-09-12T17:30:49.157Z,15.74
2022-09-12T17:33:22.156Z,15.76
2022-09-12T17:35:54.781Z,15.76
2022-09-12T17:38:28.121Z,15.75
2022-09-12T17:41:06.762Z,15.75
2022-09-12T17:43:40.563Z,15.66
2022-09-12T17:46:13.627Z,15.63
2022-09-12T17:48:46.278Z,15.65
2022-09-12T17:51:18.719Z,15.62
2022-09-12T17:53:51.490Z,15.61
2022-09-12T17:56:24.392Z,15.56
2022-09-12T17:58:57.886Z,15.44
2022-09-12T18:01:51.568Z,15.54
2022-09-12T18:04:24.658Z,15.52
2022-09-12T18:06:58.245Z,15.48
2022-09-12T18:09:31.484Z,15.44
2022-09-12T18:12:04.481Z,15.40
2022-09-12T18:14:38.150Z,15.43
2022-09-12T18:17:11.974Z,15.39
2022-09-12T18:19:45.258Z,15.38
2022-09-12T18:22:17.878Z,15.38
2022-09-12T18:24:50.285Z,15.38
2022-09-12T18:27:23.514Z,15.35
2022-09-12T18:30:19.550Z,15.29
2022-09-12T18:32:51.282Z,15.27
2022-09-12T18:35:24.126Z,15.27
2022-09-12T18:37:57.613Z,15.28
2022-09-12T18:40:30.933Z,15.27
2022-09-12T18:43:03.512Z,15.22
2022-09-12T18:45:37.911Z,15.14
2022-09-12T18:48:11.522Z,15.12
2022-09-12T18:50:45.120Z,15.08
2022-09-12T18:53:18.073Z,15.06
2022-09-12T18:55:50.978Z,15.05
2022-09-12T18:58:23.665Z,15.03
2022-09-12T19:00:56.571Z,14.99
2022-09-12T19:03:29.338Z,14.97
2022-09-12T19:06:02.777Z,14.95
2022-09-12T19:08:37.211Z,14.95
2022-09-12T19:11:11.527Z,14.93
2022-09-12T19:13:45.235Z,14.92
2022-09-12T19:16:21.081Z,14.90
2022-09-12T19:18:54.970Z,14.89
2022-09-12T19:21:30.168Z,14.81
2022-09-12T19:24:13.972Z,14.80
2022-09-12T19:26:46.875Z,14.72
2022-09-12T19:29:19.866Z,14.65
2022-09-12T19:31:52.820Z,14.52
2022-09-12T19:34:25.524Z,14.45
2022-09-12T19:36:59.828Z,14.43
2022-09-12T19:39:32.504Z,14.36
2022-09-12T19:42:05.381Z,14.30
2022-09-12T19:44:38.733Z,14.23
2022-09-12T19:47:12.053Z,14.17
2022-09-12T19:49:44.989Z,14.13
2022-09-12T19:52:17.941Z,14.11
2022-09-12T19:54:50.568Z,14.09
2022-09-12T19:57:23.784Z,14.07
2022-09-12T19:59:56.426Z,14.05
2022-09-12T20:02:30.404Z,14.04
2022-09-12T20:05:03.362Z,14.01
2022-09-12T20:07:36.202Z,13.93
2022-09-12T20:10:09.219Z,13.91
2022-09-12T20:12:42.359Z,13.90
2022-09-12T20:15:16.047Z,13.83
2022-09-12T20:17:49.129Z,13.78
2022-09-12T20:20:21.838Z,13.76
2022-09-12T20:22:55.211Z,13.72
2022-09-12T20:25:27.704Z,13.61
2022-09-12T20:28:00.412Z,13.51
2022-09-12T20:30:32.965Z,13.54
2022-09-12T20:33:05.700Z,13.51
2022-09-12T20:35:39.544Z,13.47
2022-09-12T20:38:12.148Z,13.48
2022-09-12T20:40:50.946Z,13.57
2022-09-12T20:43:23.752Z,13.64
2022-09-12T20:45:57.007Z,13.71
2022-09-12T20:48:29.952Z,13.71
2022-09-12T20:51:03.340Z,13.82
2022-09-12T20:53:36.391Z,13.88
2022-09-12T20:56:10.647Z,13.94
2022-09-12T20:58:44.857Z,13.98
2022-09-12T21:01:18.401Z,13.98
2022-09-12T21:03:51.460Z,14.05
2022-09-12T21:06:24.764Z,14.02
2022-09-12T21:09:01.463Z,14.08
2022-09-12T21:11:34.918Z,14.11
2022-09-12T21:14:12.084Z,14.16
2022-09-12T21:16:45.367Z,14.22
2022-09-12T21:19:18.381Z,14.27
2022-09-12T21:21:50.867Z,14.29
2022-09-12T21:24:23.713Z,14.30
2022-09-12T21:26:57.449Z,14.20
2022-09-12T21:29:32.763Z,14.24
2022-09-12T21:32:09.941Z,14.22
2022-09-12T21:34:48.547Z,14.23
2022-09-12T21:37:22.553Z,14.23
2022-09-12T21:39:55.956Z,14.24
2022-09-12T21:42:29.073Z,14.26
2022-09-12T21:45:02.585Z,14.28
2022-09-12T21:47:36.004Z,14.30
2022-09-12T21:50:12.939Z,14.30
2022-09-12T21:52:46.732Z,14.31
2022-09-12T21:55:20.725Z,14.31
2022-09-12T21:57:53.910Z,14.30
2022-09-12T22:00:26.556Z,14.31
2022-09-12T22:02:59.469Z,14.30
2022-09-12T22:05:33.951Z,14.27
2022-09-12T22:08:06.233Z,14.25
2022-09-12T22:10:39.081Z,14.28
2022-09-12T22:13:11.767Z,14.24
2022-09-12T22:15:46.356Z,14.15
2022-09-12T22:18:19.079Z,14.14
2022-09-12T22:20:51.839Z,14.19
2022-09-12T22:23:42.839Z,14.18
2022-09-12T22:26:16.140Z,14.17
2022-09-12T22:28:48.729Z,14.14
2022-09-12T22:31:21.997Z,14.13
2022-09-12T22:33:57.437Z,14.12
2022-09-12T22:36:31.368Z,14.08
2022-09-12T22:39:06.628Z,14.16
2022-09-12T22:41:39.526Z,14.18
2022-09-12T22:44:12.653Z,14.21
2022-09-12T22:46:45.532Z,14.23
2022-09-12T22:49:18.275Z,14.25
2022-09-12T22:51:51.065Z,14.24
2022-09-12T22:54:23.654Z,14.20
2022-09-12T22:56:56.935Z,14.14
2022-09-12T22:59:29.425Z,14.03
2022-09-12T23:02:02.601Z,14.01
2022-09-12T23:08:43.992Z,13.85
2022-09-12T23:11:19.616Z,13.80
2022-09-12T23:13:54.183Z,13.74
2022-09-12T23:16:28.960Z,13.69
2022-09-12T23:19:02.271Z,13.65
2022-09-12T23:21:34.818Z,13.61
2022-09-12T23:24:07.802Z,13.59
2022-09-12T23:26:41.264Z,13.60
2022-09-12T23:29:14.853Z,13.60
2022-09-12T23:31:47.615Z,13.71
2022-09-12T23:34:20.408Z,13.72
2022-09-12T23:36:53.151Z,13.80
2022-09-12T23:39:26.210Z,13.82
2022-09-12T23:41:59.111Z,13.79
2022-09-12T23:44:32.633Z,13.78
2022-09-12T23:47:05.407Z,13.77
2022-09-12T23:49:38.320Z,13.78
2022-09-12T23:52:11.608Z,13.79
2022-09-12T23:54:44.375Z,13.78
2022-09-12T23:57:17.304Z,13.78
2022-09-12T23:59:50.410Z,13.81
